Time;durP1;ratioP1;P1;durP2;ratioP2;P2;SDS_P1;SDS_P2;PMS_P1;PMS_P2;Temp;Humidity;BMP_temperature;BMP_pressure;BME280_temperature;BME280_humidity;BME280_pressure;Samples;Min_cycle;Max_cycle;Signal;HPM_P1;HPM_P2
2022/05/16 00:00:28;;;;;;;8.55;7.75;;;;;;;18.01;100.00;98554.16;6268683;22;20198;-56
2022/05/16 00:02:55;;;;;;;7.20;6.57;;;;;;;18.11;100.00;98550.47;6270383;22;20147;-57
2022/05/16 00:05:21;;;;;;;10.20;7.88;;;;;;;18.00;100.00;98549.84;6269927;22;20144;-56
2022/05/16 00:07:47;;;;;;;9.95;7.30;;;;;;;18.10;100.00;98540.97;6258522;22;20503;-56
2022/05/16 00:10:13;;;;;;;8.63;7.25;;;;;;;18.13;100.00;98547.72;6257684;22;20449;-56
2022/05/16 00:12:39;;;;;;;6.85;6.22;;;;;;;18.22;100.00;98544.19;6264199;22;20152;-56
2022/05/16 00:15:07;;;;;;;8.82;6.10;;;;;;;17.88;100.00;98538.78;6270478;22;20589;-57
2022/05/16 00:17:32;;;;;;;9.52;5.65;;;;;;;17.44;100.00;98549.22;6269713;22;20657;-56
2022/05/16 00:19:58;;;;;;;6.50;5.88;;;;;;;17.65;100.00;98542.78;6270204;22;20226;-56
2022/05/16 00:22:25;;;;;;;6.22;5.53;;;;;;;17.79;99.66;98546.69;6269838;22;20155;-56
2022/05/16 00:24:51;;;;;;;6.57;5.20;;;;;;;17.61;99.56;98548.44;6269961;22;20500;-56
2022/05/16 00:27:16;;;;;;;6.40;5.75;;;;;;;17.75;96.74;98550.56;6267543;22;20255;-56
2022/05/16 00:29:42;;;;;;;6.03;5.50;;;;;;;17.84;94.23;98553.13;6255840;22;20144;-56
2022/05/16 00:32:08;;;;;;;8.10;6.25;;;;;;;17.83;95.98;98555.91;6256561;22;20159;-56
2022/05/16 00:34:34;;;;;;;5.75;5.25;;;;;;;17.87;96.50;98565.09;6267312;22;20231;-56
2022/05/16 00:37:00;;;;;;;5.93;5.53;;;;;;;17.74;99.25;98564.63;6270364;22;20664;-57
2022/05/16 00:39:25;;;;;;;6.90;5.72;;;;;;;17.97;98.33;98558.03;6269661;22;20179;-57
2022/05/16 00:41:52;;;;;;;7.03;6.32;;;;;;;17.95;99.78;98554.75;6268386;22;20185;-56
2022/05/16 00:44:19;;;;;;;6.88;6.28;;;;;;;18.11;99.00;98560.13;6269901;22;20151;-56
2022/05/16 00:46:45;;;;;;;7.38;6.25;;;;;;;17.92;98.91;98560.25;6269954;22;20177;-56
2022/05/16 00:49:28;;;;;;;6.78;6.15;;;;;;;17.84;98.53;98563.59;6261817;22;20158;-56
2022/05/16 00:52:25;;;;;;;9.10;6.40;;;;;;;17.91;98.03;98553.38;6256901;22;20140;-56
2022/05/16 00:54:58;;;;;;;7.80;6.15;;;;;;;18.14;93.28;98559.84;6251276;22;20163;-56
2022/05/16 00:57:32;;;;;;;6.82;6.13;;;;;;;17.94;95.85;98555.69;6270162;22;20151;-56
2022/05/16 01:00:03;;;;;;;6.95;6.15;;;;;;;17.73;96.71;98560.38;6268115;22;20233;-56
2022/05/16 01:05:16;;;;;;;6.32;5.70;;;;;;;17.67;97.55;98556.53;6269606;22;20193;-56
2022/05/16 01:07:44;;;;;;;11.18;6.15;;;;;;;17.84;95.36;98554.94;6269909;22;20230;-56
2022/05/16 01:10:14;;;;;;;7.35;6.55;;;;;;;17.81;97.94;98553.44;6262082;22;20175;-56
2022/05/16 01:12:43;;;;;;;8.25;7.47;;;;;;;17.55;100.00;98560.31;6256362;22;20133;-56
2022/05/16 01:15:33;;;;;;;7.88;7.15;;;;;;;17.63;100.00;98564.81;6258008;22;20575;-56
2022/05/16 01:18:00;;;;;;;9.10;6.68;;;;;;;17.72;100.00;98558.72;6268749;22;20201;-56
2022/05/16 01:20:49;;;;;;;7.88;7.18;;;;;;;17.67;100.00;98563.56;6269758;22;20175;-56
2022/05/16 01:23:18;;;;;;;8.40;7.50;;;;;;;17.76;100.00;98558.28;6269288;22;20140;-56
2022/05/16 01:25:44;;;;;;;8.52;7.43;;;;;;;17.95;100.00;98559.97;6267964;22;20151;-56
2022/05/16 01:28:10;;;;;;;7.70;6.93;;;;;;;17.92;100.00;98549.78;6268022;22;20640;-56
2022/05/16 01:30:46;;;;;;;8.02;7.32;;;;;;;17.86;100.00;98551.19;6265846;22;20159;-56
2022/05/16 01:33:20;;;;;;;8.57;7.72;;;;;;;17.76;100.00;98554.81;6256406;22;20467;-56
2022/05/16 01:35:46;;;;;;;10.65;7.43;;;;;;;17.62;100.00;98550.09;6258287;22;20455;-56
2022/05/16 01:38:22;;;;;;;9.07;8.18;;;;;;;17.71;100.00;98559.66;6268350;22;20175;-56
2022/05/16 01:41:08;;;;;;;8.18;7.38;;;;;;;17.57;100.00;98549.69;6269252;22;20132;-56
2022/05/16 01:43:42;;;;;;;8.98;8.10;;;;;;;17.41;100.00;98555.56;6269464;22;20341;-56
2022/05/16 01:46:09;;;;;;;9.55;8.57;;;;;;;17.50;100.00;98559.91;6269416;22;20167;-57
2022/05/16 01:48:35;;;;;;;8.05;5.45;;;;;;;17.56;99.20;98556.72;6269396;22;20505;-56
2022/05/16 01:51:06;;;;;;;6.05;5.50;;;;;;;17.45;93.92;98556.09;6269296;22;20236;-56
2022/05/16 01:53:32;;;;;;;6.60;4.82;;;;;;;17.56;92.38;98559.31;6255000;22;20160;-57
2022/05/16 01:55:57;;;;;;;5.32;4.88;;;;;;;17.49;92.15;98554.84;6257244;22;20548;-56
2022/05/16 01:58:23;;;;;;;5.72;5.28;;;;;;;17.33;92.26;98557.22;6262927;22;20650;-56
2022/05/16 02:00:50;;;;;;;5.68;4.70;;;;;;;17.39;92.21;98564.50;6269112;22;20159;-56
2022/05/16 02:03:15;;;;;;;5.47;4.65;;;;;;;17.36;91.96;98546.44;6269548;22;20148;-56
2022/05/16 02:05:42;;;;;;;5.47;4.80;;;;;;;17.21;92.18;98563.59;6269472;22;20162;-56
2022/05/16 02:08:08;;;;;;;5.85;5.35;;;;;;;17.18;93.64;98556.00;6271389;22;20234;-56
2022/05/16 02:10:33;;;;;;;6.43;4.90;;;;;;;17.23;91.87;98561.63;6271091;22;20181;-57
2022/05/16 02:12:59;;;;;;;5.68;5.18;;;;;;;17.15;92.21;98558.91;6265617;22;20780;-56
2022/05/16 02:15:27;;;;;;;8.18;4.70;;;;;;;17.07;92.16;98558.78;6257909;22;20365;-56
2022/05/16 02:17:53;;;;;;;5.18;4.78;;;;;;;17.15;91.38;98553.69;6259707;22;20316;-56
2022/05/16 02:20:19;;;;;;;7.53;5.07;;;;;;;17.00;92.72;98565.56;6271035;22;20143;-57
2022/05/16 02:25:32;;;;;;;5.78;5.18;;;;;;;17.00;92.00;98560.31;6271178;22;20155;-56
2022/05/16 02:27:58;;;;;;;5.28;4.85;;;;;;;16.97;90.85;98555.41;6269169;22;20202;-56
2022/05/16 02:30:23;;;;;;;5.82;5.22;;;;;;;17.05;91.41;98558.94;6271108;22;20148;-56
2022/05/16 02:32:49;;;;;;;21.08;6.20;;;;;;;17.07;91.03;98564.84;6271250;22;20171;-56
2022/05/16 02:35:15;;;;;;;5.65;5.22;;;;;;;16.94;94.75;98573.97;6258427;22;20160;-56
2022/05/16 02:37:41;;;;;;;5.10;4.68;;;;;;;16.88;96.60;98557.06;6258461;22;20174;-56
2022/05/16 02:40:08;;;;;;;5.07;4.68;;;;;;;16.89;94.38;98570.94;6238161;22;20151;-56
2022/05/16 02:42:34;;;;;;;5.05;4.55;;;;;;;16.89;92.67;98571.78;6271218;22;20152;-56
2022/05/16 02:44:59;;;;;;;5.40;4.90;;;;;;;16.87;93.72;98565.88;6271067;22;20148;-56
2022/05/16 02:47:25;;;;;;;6.65;5.25;;;;;;;17.06;90.94;98565.00;6270905;22;20601;-56
2022/05/16 02:49:51;;;;;;;6.90;5.15;;;;;;;17.13;93.33;98566.09;6271259;22;20152;-56
2022/05/16 02:52:17;;;;;;;7.68;5.28;;;;;;;17.17;94.12;98567.44;6270993;22;20597;-56
2022/05/16 02:54:43;;;;;;;6.03;5.40;;;;;;;17.20;92.35;98567.97;6267563;22;20721;-56
2022/05/16 02:57:09;;;;;;;5.43;4.82;;;;;;;17.07;90.73;98571.84;6255371;22;20212;-56
2022/05/16 02:59:36;;;;;;;8.13;4.63;;;;;;;16.91;89.12;98569.03;6257535;22;20191;-56
2022/05/16 03:02:04;;;;;;;5.03;4.63;;;;;;;16.86;88.29;98573.84;6268774;22;20227;-56
2022/05/16 03:04:31;;;;;;;5.70;5.20;;;;;;;16.80;89.97;98574.41;6268914;22;20145;-56
2022/05/16 03:06:56;;;;;;;4.88;4.47;;;;;;;16.63;89.02;98567.28;6267519;22;20160;-56
2022/05/16 03:09:23;;;;;;;5.90;4.35;;;;;;;16.75;88.96;98568.78;6270836;22;20144;-56
2022/05/16 03:11:49;;;;;;;6.55;5.03;;;;;;;16.75;86.67;98582.69;6270732;22;20235;-56
2022/05/16 03:14:15;;;;;;;5.15;4.70;;;;;;;16.78;86.19;98579.75;6269176;22;20171;-56
2022/05/16 03:16:41;;;;;;;5.53;4.32;;;;;;;16.62;88.10;98582.09;6259250;22;20452;-56
2022/05/16 03:19:07;;;;;;;5.28;4.75;;;;;;;16.59;88.91;98576.34;6256085;22;20212;-61
2022/05/16 03:21:33;;;;;;;4.72;4.32;;;;;;;16.56;89.16;98576.63;6259849;22;20270;-56
2022/05/16 03:23:59;;;;;;;7.57;4.95;;;;;;;16.56;89.57;98581.84;6268940;22;20616;-56
2022/05/16 03:26:25;;;;;;;5.10;4.63;;;;;;;16.61;88.61;98584.88;6270731;22;20152;-56
2022/05/16 03:28:52;;;;;;;6.43;4.43;;;;;;;16.52;89.41;98585.69;6271232;22;20145;-56
2022/05/16 03:31:18;;;;;;;5.00;4.70;;;;;;;16.59;88.25;98577.19;6269185;22;20148;-56
2022/05/16 03:33:44;;;;;;;4.85;4.45;;;;;;;16.66;88.10;98587.88;6270941;22;20156;-56
2022/05/16 03:36:10;;;;;;;4.70;4.18;;;;;;;16.76;86.94;98592.16;6270290;22;20207;-56
2022/05/16 03:41:20;;;;;;;5.07;4.68;;;;;;;16.78;87.27;98592.00;6258657;22;20147;-56
2022/05/16 03:43:45;;;;;;;5.10;4.63;;;;;;;16.80;86.96;98587.47;6267042;22;20148;-56
2022/05/16 03:46:11;;;;;;;4.57;4.28;;;;;;;16.68;88.28;98580.75;6270561;22;20809;-56
2022/05/16 03:48:37;;;;;;;5.28;4.80;;;;;;;16.77;88.80;98592.97;6270355;22;20239;-57
2022/05/16 03:51:05;;;;;;;6.40;4.93;;;;;;;16.81;89.53;98594.34;6270585;22;20206;-56
2022/05/16 03:53:31;;;;;;;5.05;4.45;;;;;;;16.91;88.46;98582.09;6270377;22;20595;-56
2022/05/16 03:55:56;;;;;;;5.28;4.70;;;;;;;16.92;88.93;98586.34;6270312;22;20159;-56
2022/05/16 03:58:22;;;;;;;6.18;4.30;;;;;;;17.13;87.02;98587.81;6264479;22;20187;-56
2022/05/16 04:00:48;;;;;;;5.38;4.82;;;;;;;17.18;86.72;98590.84;6257285;22;20494;-56
2022/05/16 04:03:14;;;;;;;5.07;4.68;;;;;;;17.28;86.24;98601.28;6259435;22;20720;-56
2022/05/16 04:05:40;;;;;;;5.40;4.65;;;;;;;17.33;85.56;98599.06;6269614;22;20144;-56
2022/05/16 04:08:06;;;;;;;4.95;4.55;;;;;;;17.28;85.55;98591.66;6270337;22;20148;-57
2022/05/16 04:10:31;;;;;;;7.40;4.15;;;;;;;17.36;85.99;98598.75;6270592;22;20609;-56
2022/05/16 04:12:57;;;;;;;6.75;4.70;;;;;;;17.34;86.96;98590.25;6268540;22;20225;-56
2022/05/16 04:15:24;;;;;;;5.30;4.90;;;;;;;17.48;85.80;98603.72;6268135;22;20648;-56
2022/05/16 04:17:50;;;;;;;5.72;4.22;;;;;;;17.57;84.68;98599.41;6269822;22;20159;-56
2022/05/16 04:20:17;;;;;;;6.07;4.32;;;;;;;17.57;83.25;98602.88;6259066;22;20188;-56
2022/05/16 04:22:43;;;;;;;4.50;4.20;;;;;;;17.59;84.34;98610.56;6255526;22;20642;-56
2022/05/16 04:25:12;;;;;;;4.43;4.07;;;;;;;17.75;83.19;98618.63;6263552;22;20167;-56
2022/05/16 04:27:38;;;;;;;5.40;4.68;;;;;;;17.85;82.72;98619.41;6269802;22;20148;-57
2022/05/16 04:30:05;;;;;;;4.88;4.43;;;;;;;17.86;82.01;98618.44;6268071;22;20206;-56
2022/05/16 04:32:31;;;;;;;7.82;4.28;;;;;;;17.99;81.41;98616.28;6269899;22;20273;-56
2022/05/16 04:34:56;;;;;;;5.50;4.28;;;;;;;18.12;80.53;98614.97;6269786;22;20176;-55
2022/05/16 04:37:22;;;;;;;5.53;4.32;;;;;;;18.21;80.61;98621.13;6270137;22;20159;-56
2022/05/16 04:39:47;;;;;;;6.72;4.35;;;;;;;18.25;80.42;98619.88;6267593;22;20175;-56
2022/05/16 04:44:57;;;;;;;11.68;8.63;;;;;;;18.39;90.61;98630.72;6258229;22;20139;-56
2022/05/16 04:47:22;;;;;;;13.55;9.10;;;;;;;18.54;90.76;98631.00;6268060;22;20148;-56
2022/05/16 04:49:48;;;;;;;10.88;9.02;;;;;;;18.73;90.13;98636.94;6269805;22;20242;-57
2022/05/16 04:52:14;;;;;;;10.30;8.85;;;;;;;18.92;88.36;98633.31;6269669;22;20152;-57
2022/05/16 04:54:40;;;;;;;11.45;8.05;;;;;;;19.07;86.56;98634.44;6269760;22;20507;-57
2022/05/16 04:57:06;;;;;;;11.68;7.47;;;;;;;19.06;84.98;98633.59;6269760;22;20162;-57
2022/05/16 04:59:32;;;;;;;5.90;4.88;;;;;;;18.89;79.87;98636.25;6267967;22;20183;-55
2022/05/16 05:01:58;;;;;;;4.95;4.22;;;;;;;18.75;77.49;98629.75;6259960;22;20152;-55
2022/05/16 05:04:24;;;;;;;6.88;4.20;;;;;;;18.55;77.86;98628.25;6256688;22;20369;-56
2022/05/16 05:06:50;;;;;;;5.03;4.43;;;;;;;18.65;77.98;98623.75;6261389;22;20143;-57
2022/05/16 05:09:15;;;;;;;4.57;4.18;;;;;;;18.80;77.71;98632.75;6269636;22;20144;-56
2022/05/16 05:14:33;;;;;;;5.30;4.05;;;;;;;18.95;76.28;98633.03;6269472;22;20200;-56
2022/05/16 05:17:07;;;;;;;5.38;4.07;;;;;;;18.88;76.68;98630.16;6269304;22;20636;-56
2022/05/16 05:19:35;;;;;;;5.28;4.35;;;;;;;19.08;75.89;98630.81;6269372;22;20190;-56
2022/05/16 05:22:00;;;;;;;5.03;4.72;;;;;;;19.09;76.46;98632.47;6265930;22;20313;-56
2022/05/16 05:24:26;;;;;;;4.13;3.85;;;;;;;19.16;75.77;98633.50;6255962;22;20148;-56
2022/05/16 05:26:52;;;;;;;4.22;3.92;;;;;;;19.12;76.42;98637.41;6256645;22;20492;-56
2022/05/16 05:29:19;;;;;;;7.10;4.45;;;;;;;19.22;75.81;98638.16;6268052;22;20541;-56
2022/05/16 05:31:45;;;;;;;4.40;4.10;;;;;;;19.19;76.47;98633.22;6267732;22;20152;-56
2022/05/16 05:34:11;;;;;;;5.32;4.82;;;;;;;19.26;75.98;98635.09;6269553;22;20160;-56
2022/05/16 05:36:38;;;;;;;4.82;4.35;;;;;;;19.34;75.17;98636.94;6269183;22;20159;-56
2022/05/16 05:39:04;;;;;;;5.38;4.03;;;;;;;19.40;74.01;98641.59;6269542;22;20176;-56
2022/05/16 05:41:31;;;;;;;4.60;4.20;;;;;;;19.54;74.15;98643.63;6269348;22;20156;-56
2022/05/16 05:43:57;;;;;;;6.32;4.10;;;;;;;19.73;73.43;98644.25;6258210;22;20464;-57
2022/05/16 05:46:23;;;;;;;5.45;4.25;;;;;;;19.84;73.01;98645.75;6256623;22;20691;-56
2022/05/16 05:48:48;;;;;;;8.32;4.00;;;;;;;20.01;71.60;98647.47;6260266;22;20193;-57
2022/05/16 05:51:14;;;;;;;4.22;3.92;;;;;;;19.97;71.60;98646.16;6269446;22;20155;-57
2022/05/16 05:53:41;;;;;;;6.88;4.18;;;;;;;20.12;70.79;98660.38;6269414;22;20218;-56
2022/05/16 05:56:08;;;;;;;4.45;4.10;;;;;;;20.21;70.48;98648.88;6267477;22;20151;-56
2022/05/16 05:58:34;;;;;;;11.48;9.57;;;;;;;20.20;70.53;98648.09;6269266;22;20186;-57
2022/05/16 06:01:00;;;;;;;7.65;6.35;;;;;;;20.39;70.11;98660.94;6269137;22;20148;-55
2022/05/16 06:03:27;;;;;;;5.25;4.22;;;;;;;20.43;70.25;98650.94;6269275;22;20144;-56
2022/05/16 06:05:53;;;;;;;7.38;4.20;;;;;;;20.53;70.11;98651.63;6253172;22;20151;-56
2022/05/16 06:08:18;;;;;;;4.45;4.05;;;;;;;20.61;69.00;98664.78;6257249;22;20148;-56
2022/05/16 06:10:44;;;;;;;5.75;4.00;;;;;;;20.70;68.34;98666.44;6263149;22;20609;-56
2022/05/16 06:13:09;;;;;;;4.82;4.45;;;;;;;20.85;67.98;98660.38;6267437;22;20568;-56
2022/05/16 06:15:35;;;;;;;4.85;4.55;;;;;;;20.96;68.80;98662.72;6269356;22;20155;-56
2022/05/16 06:18:00;;;;;;;6.70;4.30;;;;;;;20.96;67.72;98668.00;6269012;22;20167;-56
2022/05/16 06:20:26;;;;;;;5.75;4.30;;;;;;;21.06;67.89;98665.19;6269575;22;20592;-56
2022/05/16 06:22:51;;;;;;;4.80;4.22;;;;;;;21.24;67.27;98657.94;6269135;22;20147;-56
2022/05/16 06:25:31;;;;;;;6.10;4.05;;;;;;;21.40;67.05;98668.47;6264316;22;20234;-56
2022/05/16 06:28:06;;;;;;;4.05;3.67;;;;;;;21.52;65.31;98669.78;6254298;22;20134;-56
2022/05/16 06:30:33;;;;;;;4.55;4.05;;;;;;;21.56;64.60;98676.34;6256527;22;20159;-56
2022/05/16 06:32:58;;;;;;;4.55;4.15;;;;;;;21.66;64.71;98661.16;6269200;22;20175;-57
2022/05/16 06:35:24;;;;;;;4.95;4.43;;;;;;;21.83;65.00;98663.66;6269151;22;20175;-56
2022/05/16 06:37:50;;;;;;;7.10;4.43;;;;;;;21.84;64.87;98665.28;6269045;22;20159;-56
2022/05/16 06:40:18;;;;;;;5.53;5.03;;;;;;;21.88;64.38;98661.31;6269092;22;20147;-57
2022/05/16 06:42:44;;;;;;;5.18;4.72;;;;;;;22.00;64.87;98664.41;6269406;22;20148;-57
2022/05/16 06:45:11;;;;;;;8.38;6.25;;;;;;;22.00;66.18;98669.66;6268718;22;20221;-57
2022/05/16 06:47:36;;;;;;;10.27;5.93;;;;;;;22.02;66.42;98662.44;6256572;22;20654;-57
2022/05/16 06:50:02;;;;;;;7.40;6.07;;;;;;;22.16;65.69;98659.06;6257197;22;20143;-57
2022/05/16 06:52:28;;;;;;;8.30;6.00;;;;;;;22.31;65.51;98662.63;6264947;22;20572;-56
2022/05/16 06:54:53;;;;;;;7.38;6.72;;;;;;;22.50;64.97;98667.50;6269063;22;20239;-57
2022/05/16 06:57:19;;;;;;;10.40;7.03;;;;;;;22.68;65.95;98666.22;6270886;22;20526;-57
2022/05/16 06:59:44;;;;;;;8.52;7.25;;;;;;;22.87;66.11;98672.88;6270999;22;20183;-57
2022/05/16 07:02:10;;;;;;;9.75;8.70;;;;;;;23.00;66.06;98659.91;6270848;22;20158;-56
2022/05/16 07:04:39;;;;;;;11.55;7.88;;;;;;;23.06;66.25;98665.31;6270840;22;20156;-57
2022/05/16 07:07:05;;;;;;;11.13;7.35;;;;;;;23.16;65.87;98670.34;6267275;22;20505;-56
2022/05/16 07:09:32;;;;;;;10.00;7.97;;;;;;;23.23;65.85;98666.84;6257212;22;20160;-57
2022/05/16 07:11:57;;;;;;;12.07;8.20;;;;;;;23.31;65.40;98672.03;6259008;22;20482;-56
2022/05/16 07:14:22;;;;;;;10.30;8.35;;;;;;;23.43;64.54;98672.44;6266591;22;20156;-56
2022/05/16 07:16:48;;;;;;;8.82;7.65;;;;;;;23.50;63.83;98670.72;6270650;22;20527;-56
2022/05/16 07:19:13;;;;;;;8.90;7.95;;;;;;;23.50;64.40;98673.38;6270605;22;20176;-57
2022/05/16 07:21:39;;;;;;;16.02;7.85;;;;;;;23.48;64.86;98660.34;6270600;22;20589;-57
2022/05/16 07:24:04;;;;;;;13.40;8.05;;;;;;;23.57;65.12;98669.00;6270813;22;20562;-57
2022/05/16 07:29:14;;;;;;;10.77;8.20;;;;;;;23.69;63.59;98674.47;6260783;22;20225;-57
2022/05/16 07:31:39;;;;;;;10.23;8.32;;;;;;;23.73;63.42;98675.75;6257757;22;20147;-57
2022/05/16 07:34:05;;;;;;;14.15;8.13;;;;;;;23.83;63.18;98677.34;6262670;22;20152;-57
2022/05/16 07:36:30;;;;;;;9.65;8.68;;;;;;;23.85;63.64;98673.50;6270353;22;20585;-57
2022/05/16 07:38:56;;;;;;;12.68;9.48;;;;;;;23.86;64.31;98672.50;6270452;22;20168;-57
2022/05/16 07:41:22;;;;;;;10.73;9.27;;;;;;;23.92;63.68;98673.63;6270442;22;20155;-57
2022/05/16 07:43:47;;;;;;;10.52;9.18;;;;;;;23.98;64.12;98672.88;6268785;22;20194;-57
2022/05/16 07:46:12;;;;;;;12.88;9.55;;;;;;;24.01;64.56;98670.69;6270370;22;20144;-57
2022/05/16 07:48:38;;;;;;;11.50;9.73;;;;;;;23.98;64.92;98667.59;6270488;22;20144;-57
2022/05/16 07:51:03;;;;;;;9.77;8.85;;;;;;;24.06;65.48;98664.88;6256591;22;20151;-57
2022/05/16 07:53:29;;;;;;;11.40;10.13;;;;;;;24.11;64.80;98663.31;6258466;22;20152;-57
2022/05/16 07:55:56;;;;;;;13.55;9.52;;;;;;;23.93;64.83;98665.50;6265188;22;20166;-57
2022/05/16 07:58:23;;;;;;;16.85;8.65;;;;;;;23.98;65.76;98667.59;6270249;22;20171;-57
2022/05/16 08:00:50;;;;;;;13.30;9.55;;;;;;;24.06;64.43;98659.59;6270404;22;20497;-57
2022/05/16 08:03:18;;;;;;;18.17;8.80;;;;;;;24.13;64.84;98651.56;6268766;22;20156;-57
2022/05/16 08:05:44;;;;;;;10.02;8.82;;;;;;;24.20;64.53;98660.38;6270333;22;20144;-57
2022/05/16 08:10:56;;;;;;;9.95;8.98;;;;;;;24.21;63.69;98654.09;6263536;22;20696;-57
2022/05/16 08:13:22;;;;;;;9.95;8.32;;;;;;;24.26;63.61;98650.91;6257231;22;20150;-57
2022/05/16 08:15:47;;;;;;;10.00;8.98;;;;;;;24.31;63.81;98653.81;6257864;22;20429;-57
2022/05/16 08:18:13;;;;;;;11.15;8.38;;;;;;;24.33;63.94;98651.78;6269983;22;20193;-57
2022/05/16 08:20:43;;;;;;;11.27;8.05;;;;;;;24.44;63.30;98652.13;6243006;22;20175;-57
2022/05/16 08:23:10;;;;;;;12.50;8.27;;;;;;;24.51;62.32;98653.03;6270101;22;20613;-57
2022/05/16 08:25:36;;;;;;;11.15;8.15;;;;;;;24.29;61.08;98646.06;6270024;22;20156;-57
2022/05/16 08:28:01;;;;;;;9.68;7.57;;;;;;;24.13;62.66;98655.19;6269802;22;20495;-57
2022/05/16 08:30:27;;;;;;;9.82;8.60;;;;;;;24.11;62.04;98644.81;6270170;22;20147;-57
2022/05/16 08:32:56;;;;;;;10.75;8.15;;;;;;;23.94;63.49;98640.72;6257553;22;20164;-57
2022/05/16 08:35:23;;;;;;;12.27;7.93;;;;;;;24.10;63.46;98637.88;6257463;22;20174;-57
2022/05/16 08:40:47;;;;;;;9.10;7.28;;;;;;;24.36;61.78;98641.66;6269951;22;20147;-57
2022/05/16 08:43:22;;;;;;;13.20;7.53;;;;;;;24.42;60.74;98640.91;6269889;22;20147;-57
2022/05/16 08:45:59;;;;;;;10.15;8.02;;;;;;;24.32;62.32;98636.94;6269716;22;20140;-57
2022/05/16 08:48:36;;;;;;;8.77;7.88;;;;;;;24.45;61.64;98637.88;6269896;22;20135;-57
2022/05/16 08:51:06;;;;;;;13.88;8.23;;;;;;;24.60;61.37;98638.69;6270137;22;20136;-57
2022/05/16 08:53:39;;;;;;;9.38;7.82;;;;;;;24.60;60.77;98627.28;6259961;22;20248;-57
2022/05/16 08:56:08;;;;;;;10.82;7.55;;;;;;;24.73;61.14;98628.25;6257319;22;20762;-57
2022/05/16 08:58:44;;;;;;;11.32;8.30;;;;;;;24.87;61.67;98632.66;6262588;22;20183;-57
2022/05/16 09:01:13;;;;;;;14.30;8.40;;;;;;;24.99;62.13;98638.25;6269755;22;20148;-57
2022/05/16 09:03:52;;;;;;;12.23;7.38;;;;;;;25.04;57.59;98642.00;6269741;22;20143;-57
2022/05/16 09:06:22;;;;;;;9.35;7.85;;;;;;;24.94;58.54;98646.78;6269939;22;20227;-58
2022/05/16 09:08:53;;;;;;;10.43;7.40;;;;;;;25.06;59.55;98639.97;6269702;22;20597;-57
2022/05/16 09:11:42;;;;;;;11.98;7.57;;;;;;;25.18;59.41;98637.59;6269679;22;20147;-57
2022/05/16 09:14:21;;;;;;;10.02;7.75;;;;;;;25.30;57.40;98636.13;6261865;22;20152;-57
2022/05/16 09:16:57;;;;;;;11.68;7.53;;;;;;;25.42;57.13;98638.03;6256775;22;20194;-57
2022/05/16 09:20:37;;;;;;;14.15;7.13;;;;;;;25.47;56.61;98633.00;6261254;22;20185;-57
2022/05/16 09:23:30;;;;;;;8.65;7.32;;;;;;;25.47;56.39;98635.63;6116503;23;20324;-57
2022/05/16 09:26:33;;;;;;;10.07;7.07;;;;;;;25.49;56.06;98630.97;6203617;23;20232;-57
2022/05/16 09:29:03;;;;;;;9.20;7.22;;;;;;;25.53;56.30;98632.22;6269538;22;20138;-57
2022/05/16 09:31:33;;;;;;;9.25;7.43;;;;;;;25.66;56.43;98620.88;6267924;22;20545;-57
2022/05/16 09:34:00;;;;;;;7.70;6.60;;;;;;;25.56;54.75;98621.25;6267780;22;20577;-57
2022/05/16 09:36:35;;;;;;;7.07;6.38;;;;;;;25.63;54.01;98621.25;6255129;22;20598;-57
2022/05/16 09:39:03;;;;;;;9.70;7.18;;;;;;;25.70;53.22;98622.94;6255471;22;20664;-57
2022/05/16 09:41:45;;;;;;;10.27;6.78;;;;;;;25.76;54.28;98619.50;6265275;22;20585;-57
2022/05/16 09:44:29;;;;;;;8.65;6.38;;;;;;;25.91;53.89;98607.00;6267809;22;20252;-57
2022/05/16 09:47:34;;;;;;;9.70;6.25;;;;;;;26.11;47.64;98610.53;6270025;22;20152;-57
2022/05/16 09:50:02;;;;;;;6.85;4.43;;;;;;;26.23;45.49;98614.25;6205550;23;20153;-57
2022/05/16 09:52:29;;;;;;;10.32;5.30;;;;;;;26.33;45.88;98608.56;6205667;23;20646;-57
2022/05/16 09:55:01;;;;;;;11.13;5.50;;;;;;;26.46;45.67;98593.50;6237202;22;20203;-58
2022/05/16 09:57:27;;;;;;;10.90;4.35;;;;;;;26.45;45.51;98591.03;6255489;22;20155;-58
2022/05/16 09:59:55;;;;;;;8.40;4.55;;;;;;;26.55;46.38;98597.66;6257212;22;20192;-58
2022/05/16 10:02:34;;;;;;;10.90;5.53;;;;;;;26.67;46.84;98588.09;6262653;22;20217;-57
2022/05/16 10:05:26;;;;;;;11.25;5.90;;;;;;;26.71;46.37;98583.97;6269301;22;20143;-57
2022/05/16 10:07:59;;;;;;;10.05;5.78;;;;;;;26.59;47.30;98587.44;6269325;22;20136;-57
2022/05/16 10:10:32;;;;;;;6.93;6.07;;;;;;;26.67;47.09;98577.47;6269376;22;20144;-57
2022/05/16 10:12:57;;;;;;;6.85;6.15;;;;;;;26.80;47.16;98571.31;6269393;22;20136;-57
2022/05/16 10:15:24;;;;;;;6.50;5.10;;;;;;;26.85;45.52;98571.53;6269043;22;20155;-56
2022/05/16 10:17:52;;;;;;;5.90;4.80;;;;;;;26.94;44.87;98567.66;6259092;22;20735;-57
2022/05/16 10:20:49;;;;;;;8.02;5.53;;;;;;;27.05;44.87;98567.84;6256541;22;20152;-56
2022/05/16 10:23:27;;;;;;;7.55;5.28;;;;;;;27.16;44.82;98561.13;6250745;22;20669;-57
2022/05/16 10:25:55;;;;;;;7.50;5.35;;;;;;;27.14;43.93;98555.19;6270524;22;20608;-57
2022/05/16 10:28:38;;;;;;;8.10;5.20;;;;;;;27.17;44.81;98558.28;6271134;22;20144;-56
2022/05/16 10:33:59;;;;;;;6.63;3.85;;;;;;;27.51;37.50;98544.72;6271103;22;20159;-56
2022/05/16 10:36:28;;;;;;;5.07;3.28;;;;;;;27.63;38.36;98544.91;6271343;22;20136;-56
2022/05/16 10:38:54;;;;;;;5.63;3.40;;;;;;;27.84;38.65;98548.13;6260957;22;20184;-56
2022/05/16 10:41:32;;;;;;;2.80;2.47;;;;;;;28.18;33.95;98544.28;6256499;22;20761;-57
2022/05/16 10:44:35;;;;;;;3.72;3.00;;;;;;;28.52;34.17;98539.38;6263882;22;20492;-56
2022/05/16 10:47:13;;;;;;;5.65;4.38;;;;;;;28.65;39.05;98526.00;6270955;22;20555;-56
2022/05/16 10:49:57;;;;;;;9.85;4.57;;;;;;;28.94;38.68;98524.50;6271138;22;20132;-57
2022/05/16 10:52:38;;;;;;;5.00;3.15;;;;;;;29.06;34.37;98520.97;6269290;22;20243;-57
2022/05/16 10:55:05;;;;;;;8.23;3.35;;;;;;;29.40;35.59;98520.41;6270873;22;20140;-57
2022/05/16 10:58:07;;;;;;;5.05;4.28;;;;;;;29.54;35.71;98515.75;6270865;22;20152;-56
2022/05/16 11:00:57;;;;;;;4.05;3.15;;;;;;;29.71;29.60;98516.78;6258003;22;20604;-57
2022/05/16 11:03:46;;;;;;;2.65;2.45;;;;;;;29.97;27.65;98508.47;6258947;22;20152;-57
2022/05/16 11:06:37;;;;;;;5.20;2.60;;;;;;;30.22;27.37;98504.66;6268926;22;20139;-56
2022/05/16 11:09:12;;;;;;;4.25;2.78;;;;;;;30.40;27.67;98506.44;6270609;22;20124;-57
2022/05/16 11:12:12;;;;;;;7.53;2.15;;;;;;;30.66;26.54;98501.53;6269125;22;20147;-57
2022/05/16 11:14:57;;;;;;;2.92;2.67;;;;;;;30.77;25.86;98498.06;6270825;22;20151;-57
2022/05/16 11:17:22;;;;;;;2.33;2.13;;;;;;;30.99;26.21;98495.63;6270408;22;20196;-56
2022/05/16 11:20:15;;;;;;;4.47;2.58;;;;;;;31.00;25.85;98492.72;6268093;22;20623;-56
2022/05/16 11:22:46;;;;;;;4.90;2.40;;;;;;;31.15;26.46;98494.94;6255273;22;20148;-57
2022/05/16 11:25:38;;;;;;;3.55;2.83;;;;;;;31.22;26.74;98491.13;6259767;22;20179;-56
2022/05/16 11:28:35;;;;;;;3.03;2.72;;;;;;;31.28;25.17;98492.88;6270556;22;20168;-56
2022/05/16 11:31:07;;;;;;;2.50;1.92;;;;;;;31.49;22.53;98492.25;6270315;22;20597;-56
2022/05/16 11:33:47;;;;;;;3.45;2.70;;;;;;;31.65;23.55;98486.16;6271262;22;20150;-56
2022/05/16 11:36:45;;;;;;;4.07;2.40;;;;;;;31.68;23.15;98479.53;6270429;22;20190;-56
2022/05/16 11:39:32;;;;;;;3.60;2.15;;;;;;;31.45;23.46;98475.06;6271154;22;20167;-56
2022/05/16 11:42:01;;;;;;;4.68;2.25;;;;;;;31.66;23.82;98477.06;6261020;22;20189;-56
2022/05/16 11:44:35;;;;;;;3.33;1.83;;;;;;;31.67;23.66;98478.72;6257632;22;20148;-56
2022/05/16 11:47:10;;;;;;;6.57;2.50;;;;;;;31.75;24.03;98475.69;6262773;22;20147;-56
2022/05/16 11:49:42;;;;;;;2.40;2.20;;;;;;;31.84;21.81;98473.47;6270566;22;20609;-57
2022/05/16 11:52:17;;;;;;;2.92;2.50;;;;;;;31.87;23.17;98463.09;6270792;22;20197;-57
2022/05/16 11:54:52;;;;;;;3.50;2.05;;;;;;;31.84;22.52;98457.41;6270549;22;20193;-57
2022/05/16 12:03:05;;;;;;;5.90;3.63;;;;;;;31.68;27.83;98444.75;6262729;22;20213;-56
2022/05/16 12:05:38;;;;;;;5.60;3.58;;;;;;;31.96;28.68;98429.53;6257643;22;20151;-56
2022/05/16 12:08:41;;;;;;;4.93;4.07;;;;;;;31.63;29.60;98426.72;6262094;22;20487;-57
2022/05/16 12:11:06;;;;;;;9.48;4.50;;;;;;;31.77;29.31;98435.31;6266524;22;20549;-57
2022/05/16 12:13:35;;;;;;;4.40;3.88;;;;;;;31.53;29.33;98431.06;6270335;22;20230;-57
2022/05/16 12:16:12;;;;;;;6.70;4.10;;;;;;;31.39;29.93;98422.50;6270250;22;20163;-57